Time;durP1;ratioP1;P1;durP2;ratioP2;P2;SDS_P1;SDS_P2;PMS_P1;PMS_P2;Temp;Humidity;BMP_temperature;BMP_pressure;BME280_temperature;BME280_humidity;BME280_pressure;Samples;Min_cycle;Max_cycle;Signal;HPM_P1;HPM_P2
2023/06/07 02:58:36;;;;;;;9.00;8.00;;;;;;;17.86;81.20;100710.46;104558;1298;545308;-74
2023/06/07 15:15:32;;;;;;;2.00;1.10;;;;;;;23.74;41.48;100677.30;103101;1305;545225;-72
2023/06/07 15:17:59;;;;;;;7.20;0.90;;;;;;;23.77;41.43;100669.15;109111;1283;139091;-73
2023/06/07 15:20:27;;;;;;;1.90;1.00;;;;;;;23.80;40.98;100662.85;109038;1283;137747;-73
2023/06/07 15:22:55;;;;;;;2.70;1.10;;;;;;;23.80;40.67;100660.08;109090;1283;22257;-75
2023/06/07 15:25:22;;;;;;;2.00;1.10;;;;;;;23.80;40.84;100656.38;109575;1276;137337;-73
2023/06/07 15:27:50;;;;;;;3.70;1.00;;;;;;;23.78;41.13;100652.77;109760;1276;22350;-74
2023/06/07 15:30:17;;;;;;;2.20;1.00;;;;;;;23.76;41.65;100654.94;109532;1273;138141;-72
2023/06/07 15:32:44;;;;;;;2.10;0.70;;;;;;;23.72;41.79;100658.46;109696;1273;139317;-74
2023/06/07 15:35:12;;;;;;;3.30;1.00;;;;;;;23.66;42.08;100658.99;109789;1273;22320;-74
2023/06/07 15:37:40;;;;;;;2.50;1.00;;;;;;;23.64;42.18;100663.98;109657;1273;137922;-73
2023/06/07 15:40:07;;;;;;;2.10;0.80;;;;;;;23.62;42.44;100666.10;109670;1273;138577;-74
2023/06/07 15:42:36;;;;;;;5.60;0.90;;;;;;;23.61;42.20;100665.89;109793;1273;22320;-72
2023/06/07 15:45:07;;;;;;;4.50;1.00;;;;;;;23.62;42.08;100670.89;109779;1273;138442;-72
2023/06/07 15:47:34;;;;;;;2.80;0.70;;;;;;;23.63;41.36;100668.18;109803;1273;22340;-74
2023/06/07 15:50:02;;;;;;;2.00;0.60;;;;;;;23.61;40.15;100667.46;109734;1273;138338;-73
2023/06/07 15:52:30;;;;;;;3.80;0.70;;;;;;;23.60;39.73;100669.42;109609;1267;137615;-76
2023/06/07 15:54:57;;;;;;;2.50;0.50;;;;;;;23.60;39.14;100668.77;109767;1266;22422;-72
2023/06/07 15:57:24;;;;;;;1.70;0.70;;;;;;;23.59;38.33;100666.98;109717;1273;137238;-72
2023/06/07 15:59:52;;;;;;;2.90;0.80;;;;;;;23.55;37.60;100667.40;109810;1273;23085;-72
2023/06/07 16:02:19;;;;;;;1.80;0.50;;;;;;;23.50;37.57;100667.38;109717;1273;138577;-73
2023/06/07 16:04:47;;;;;;;1.50;0.30;;;;;;;23.48;37.71;100662.47;109726;1263;138628;-74
2023/06/07 16:07:14;;;;;;;0.90;0.50;;;;;;;23.47;37.46;100669.26;109821;1273;22307;-73
2023/06/07 16:09:42;;;;;;;2.60;0.50;;;;;;;23.46;37.31;100668.50;110235;1269;137954;-74
2023/06/07 16:12:10;;;;;;;0.80;0.60;;;;;;;23.46;37.24;100666.39;110056;1269;137824;-74
2023/06/07 16:14:37;;;;;;;2.30;0.60;;;;;;;23.45;37.33;100667.15;110236;1268;22332;-74
2023/06/07 16:17:04;;;;;;;3.60;0.70;;;;;;;23.46;37.50;100671.07;110031;1269;137836;-71
2023/06/07 16:19:32;;;;;;;0.90;0.40;;;;;;;23.44;37.46;100675.30;110202;1257;22316;-74
2023/06/07 16:21:59;;;;;;;4.30;1.00;;;;;;;23.43;37.43;100673.67;110101;1269;140861;-73
2023/06/07 16:24:26;;;;;;;4.20;0.70;;;;;;;23.43;37.23;100675.89;110048;1268;139760;-74
2023/06/07 16:26:54;;;;;;;2.40;0.90;;;;;;;23.44;37.18;100676.38;110040;1270;22324;-76
2023/06/07 16:29:21;;;;;;;3.50;0.90;;;;;;;23.46;37.21;100678.29;110160;1269;138436;-76
2023/06/07 16:31:48;;;;;;;2.70;1.10;;;;;;;23.47;37.24;100685.05;110202;1260;22341;-80
2023/06/07 16:34:16;;;;;;;3.40;0.50;;;;;;;23.48;37.29;100682.11;110049;1269;139364;-80
2023/06/07 16:36:43;;;;;;;0.80;0.60;;;;;;;23.46;37.49;100682.92;110099;1269;137717;-80
2023/06/07 16:39:11;;;;;;;0.80;0.40;;;;;;;23.44;37.90;100684.60;110107;1270;22956;-81
2023/06/07 16:41:40;;;;;;;0.80;0.60;;;;;;;23.42;38.24;100681.38;110032;1269;137377;-76
2023/06/07 16:44:08;;;;;;;3.10;0.60;;;;;;;23.38;38.75;100677.83;110007;1269;137674;-81
2023/06/07 16:46:37;;;;;;;8.80;1.40;;;;;;;23.35;39.30;100674.71;110077;1269;22309;-75
2023/06/07 16:49:06;;;;;;;3.30;1.90;;;;;;;23.30;39.35;100674.04;110164;1269;138526;-79
2023/06/07 16:51:34;;;;;;;3.70;1.20;;;;;;;23.25;39.61;100674.28;110178;1269;22100;-76
2023/06/07 16:54:02;;;;;;;2.60;1.70;;;;;;;23.21;39.93;100676.98;110066;1269;137272;-77
2023/06/07 16:56:29;;;;;;;1.90;1.10;;;;;;;23.17;40.10;100675.76;110057;1255;138743;-76
2023/06/07 16:58:57;;;;;;;1.60;1.30;;;;;;;23.13;40.29;100678.47;110006;1269;24003;-79
2023/06/07 17:01:24;;;;;;;4.60;2.40;;;;;;;23.11;40.44;100677.38;110028;1254;138462;-79
2023/06/07 17:03:52;;;;;;;3.60;1.70;;;;;;;23.10;40.82;100674.98;110231;1269;22330;-77
2023/06/07 17:06:19;;;;;;;4.50;1.50;;;;;;;23.09;40.82;100679.26;110074;1269;141175;-78
2023/06/07 17:08:47;;;;;;;2.30;1.50;;;;;;;23.06;40.97;100679.19;110097;1269;137587;-81
2023/06/07 17:11:15;;;;;;;1.40;1.20;;;;;;;23.03;40.94;100681.98;110108;1269;23146;-80
2023/06/07 17:13:44;;;;;;;2.70;1.10;;;;;;;22.95;41.27;100678.23;110177;1268;138026;-79
2023/06/07 17:16:12;;;;;;;2.10;1.00;;;;;;;22.96;41.40;100684.11;109930;1270;139879;-77
2023/06/07 17:18:39;;;;;;;1.40;1.00;;;;;;;22.90;41.62;100682.27;110138;1270;23035;-79
2023/06/07 17:21:07;;;;;;;2.80;1.00;;;;;;;22.84;41.91;100682.61;110068;1260;138779;-78
2023/06/07 17:23:34;;;;;;;1.20;1.10;;;;;;;22.80;42.18;100681.49;110253;1270;23058;-80
2023/06/07 17:26:03;;;;;;;1.60;1.00;;;;;;;22.77;42.33;100679.52;109927;1269;137417;-77
2023/06/07 17:28:31;;;;;;;1.90;0.70;;;;;;;22.75;42.34;100682.39;110071;1269;139350;-76
2023/06/07 17:30:59;;;;;;;1.70;0.90;;;;;;;22.73;42.29;100682.05;110262;1254;22313;-78
2023/06/07 17:33:27;;;;;;;2.90;0.70;;;;;;;22.72;42.26;100683.30;110038;1269;137745;-77
2023/06/07 17:35:54;;;;;;;1.20;0.60;;;;;;;22.69;42.12;100683.72;110145;1269;24366;-78
2023/06/07 17:38:21;;;;;;;1.40;0.90;;;;;;;22.59;42.06;100675.11;110096;1269;140877;-77
2023/06/07 17:40:49;;;;;;;1.60;1.00;;;;;;;22.62;42.20;100689.53;110039;1269;137799;-75
2023/06/07 17:43:16;;;;;;;1.10;1.10;;;;;;;22.59;42.70;100694.13;110184;1269;23001;-80
2023/06/07 17:45:46;;;;;;;3.90;1.00;;;;;;;22.53;42.72;100698.77;109904;1270;137722;-77
2023/06/07 17:48:16;;;;;;;3.30;0.90;;;;;;;22.48;42.95;100696.38;109953;1270;139028;-81
2023/06/07 17:50:48;;;;;;;3.90;0.80;;;;;;;22.44;42.76;100702.20;110241;1268;22301;-80
2023/06/07 17:53:15;;;;;;;4.40;0.60;;;;;;;22.36;42.79;100704.30;110071;1269;137525;-81
2023/06/07 17:55:44;;;;;;;7.50;1.20;;;;;;;22.35;42.88;100713.48;110053;1269;22320;-79
2023/06/07 17:58:12;;;;;;;1.50;0.50;;;;;;;22.29;43.08;100721.67;110008;1269;137767;-80
2023/06/07 18:00:40;;;;;;;1.70;0.70;;;;;;;22.22;42.76;100726.80;109916;1271;137912;-80
2023/06/07 18:03:08;;;;;;;1.40;0.40;;;;;;;22.15;42.30;100728.19;110295;1268;23022;-80
2023/06/07 18:05:39;;;;;;;1.90;0.70;;;;;;;22.06;42.19;100730.16;110064;1269;137679;-81
2023/06/07 18:08:09;;;;;;;3.00;0.40;;;;;;;21.99;42.45;100735.55;109997;1269;140631;-78
2023/06/07 18:10:39;;;;;;;0.90;0.90;;;;;;;21.92;42.18;100733.31;110124;1269;23024;-79
2023/06/07 18:13:07;;;;;;;5.10;0.50;;;;;;;21.89;42.08;100735.23;110135;1269;137333;-81
2023/06/07 18:15:37;;;;;;;0.90;0.70;;;;;;;21.86;42.14;100734.02;110054;1270;22304;-79
2023/06/07 18:18:05;;;;;;;1.90;0.40;;;;;;;21.85;42.22;100732.54;109894;1269;138666;-82
2023/06/07 18:20:34;;;;;;;0.50;0.40;;;;;;;21.85;42.05;100732.46;110043;1270;138408;-79
2023/06/07 18:23:03;;;;;;;0.90;0.60;;;;;;;21.84;42.19;100737.03;110211;1269;22386;-81
2023/06/07 18:25:34;;;;;;;5.40;0.70;;;;;;;21.85;42.03;100740.73;110236;1268;137836;-79
2023/06/07 18:28:01;;;;;;;2.40;0.50;;;;;;;21.83;41.97;100742.27;110329;1269;22319;-79
2023/06/07 18:30:31;;;;;;;3.60;0.80;;;;;;;21.79;42.12;100748.25;110289;1269;22311;-79
2023/06/07 18:32:59;;;;;;;0.50;0.20;;;;;;;21.73;42.23;100747.91;109976;1269;137772;-80
2023/06/07 18:35:26;;;;;;;0.90;0.50;;;;;;;21.67;42.43;100748.65;110067;1270;22305;-79
2023/06/07 18:37:54;;;;;;;1.10;0.70;;;;;;;21.65;42.48;100755.77;110049;1269;139316;-80
2023/06/07 18:40:21;;;;;;;3.00;0.70;;;;;;;21.61;42.68;100761.27;110037;1269;138089;-77
2023/06/07 18:42:49;;;;;;;2.10;0.60;;;;;;;21.58;42.82;100773.11;110398;1254;22425;-80
2023/06/07 18:45:19;;;;;;;2.00;0.70;;;;;;;21.57;42.96;100777.44;110285;1268;137581;-80
2023/06/07 18:47:50;;;;;;;1.00;0.40;;;;;;;21.57;43.27;100781.08;110327;1268;22311;-79
2023/06/07 18:50:17;;;;;;;1.60;0.60;;;;;;;21.56;43.33;100783.67;110149;1267;138863;-79
2023/06/07 18:52:44;;;;;;;0.70;0.50;;;;;;;21.56;43.76;100790.11;110139;1268;137808;-79
2023/06/07 18:55:12;;;;;;;1.80;0.70;;;;;;;21.46;43.82;100785.52;110180;1269;22435;-79
2023/06/07 18:57:39;;;;;;;1.30;0.40;;;;;;;21.49;44.49;100800.77;110178;1267;138282;-79
2023/06/07 19:00:07;;;;;;;0.90;0.60;;;;;;;21.46;44.82;100811.50;110061;1267;139351;-79
2023/06/07 19:02:39;;;;;;;1.30;0.90;;;;;;;21.40;45.87;100819.48;110057;1269;22335;-81
2023/06/07 19:05:08;;;;;;;2.30;0.60;;;;;;;21.31;47.45;100827.70;110006;1259;138026;-78
2023/06/07 19:07:35;;;;;;;2.80;0.90;;;;;;;21.20;49.80;100837.11;110074;1261;23342;-81
2023/06/07 19:10:03;;;;;;;2.00;1.20;;;;;;;21.05;52.44;100844.62;110121;1268;137645;-77
2023/06/07 19:12:31;;;;;;;2.70;1.10;;;;;;;20.82;55.00;100843.86;110122;1268;139795;-80
2023/06/07 19:15:00;;;;;;;3.90;1.30;;;;;;;20.70;59.20;100851.92;110019;1269;22377;-77
2023/06/07 19:17:27;;;;;;;1.30;1.10;;;;;;;20.45;62.27;100849.49;109881;1270;139228;-80
2023/06/07 19:19:58;;;;;;;1.80;0.90;;;;;;;20.23;64.94;100856.16;110179;1271;22336;-78
2023/06/07 19:22:27;;;;;;;1.40;0.70;;;;;;;20.00;67.04;100862.16;110048;1256;138577;-79
2023/06/07 19:24:54;;;;;;;1.40;1.10;;;;;;;19.80;69.13;100867.11;109932;1273;139103;-77
2023/06/07 19:27:24;;;;;;;2.30;1.10;;;;;;;19.69;70.88;100875.11;110077;1271;23029;-80
2023/06/07 19:29:51;;;;;;;2.20;1.20;;;;;;;19.58;71.61;100874.35;110083;1260;138455;-75
2023/06/07 19:32:20;;;;;;;2.50;1.40;;;;;;;19.46;71.99;100876.95;109923;1269;140536;-78
2023/06/07 19:34:48;;;;;;;1.50;1.40;;;;;;;19.34;73.29;100865.69;110315;1270;22199;-80
2023/06/07 19:37:19;;;;;;;1.70;1.30;;;;;;;19.27;77.10;100868.64;110093;1270;137519;-78
2023/06/07 19:39:46;;;;;;;1.90;1.80;;;;;;;19.24;79.98;100880.86;110268;1270;22121;-80
2023/06/07 19:42:18;;;;;;;3.20;1.40;;;;;;;19.16;82.39;100882.33;109987;1274;138554;-79
2023/06/07 19:44:47;;;;;;;1.60;1.50;;;;;;;19.11;84.84;100880.95;110120;1271;138586;-79
2023/06/07 19:47:15;;;;;;;3.10;1.10;;;;;;;19.05;86.80;100881.95;110011;1274;22852;-80
2023/06/07 19:49:42;;;;;;;1.60;1.50;;;;;;;18.98;88.43;100885.35;110146;1270;138264;-80
2023/06/07 19:52:10;;;;;;;1.50;1.30;;;;;;;18.91;90.19;100886.98;110155;1270;138444;-78
2023/06/07 19:54:37;;;;;;;1.80;1.00;;;;;;;18.83;91.35;100889.38;110278;1269;22220;-80
2023/06/07 19:57:05;;;;;;;2.90;1.30;;;;;;;18.74;90.20;100883.76;109949;1276;138874;-75
2023/06/07 19:59:33;;;;;;;1.80;1.50;;;;;;;18.62;87.28;100879.77;110270;1276;22235;-78
2023/06/07 20:02:03;;;;;;;3.20;1.60;;;;;;;18.46;87.56;100874.64;110239;1254;137945;-79
2023/06/07 20:04:32;;;;;;;3.60;2.30;;;;;;;18.27;88.77;100867.45;110206;1269;140573;-79
2023/06/07 20:07:01;;;;;;;4.80;1.70;;;;;;;18.09;91.11;100861.93;110161;1277;22747;-79
2023/06/07 20:09:34;;;;;;;1.80;1.60;;;;;;;17.95;92.43;100858.23;110164;1269;140495;-79
2023/06/07 20:12:06;;;;;;;4.50;1.70;;;;;;;17.80;91.85;100853.23;110268;1263;22242;-76
2023/06/07 20:14:35;;;;;;;2.30;1.30;;;;;;;17.66;91.67;100852.90;110362;1276;22113;-80
2023/06/07 20:17:02;;;;;;;1.80;1.40;;;;;;;17.55;92.69;100860.92;109950;1278;138663;-76
2023/06/07 20:19:29;;;;;;;6.20;1.60;;;;;;;17.49;93.02;100872.44;110281;1270;22392;-78
2023/06/07 20:21:58;;;;;;;6.50;1.50;;;;;;;17.45;93.73;100875.86;109920;1270;138674;-72
2023/06/07 20:24:26;;;;;;;2.00;1.80;;;;;;;17.41;92.66;100873.16;110141;1270;138560;-77
2023/06/07 20:26:53;;;;;;;1.80;1.60;;;;;;;17.36;90.71;100868.14;110252;1258;22462;-78
2023/06/07 20:29:20;;;;;;;3.60;2.40;;;;;;;17.32;88.43;100865.70;110225;1273;139745;-79
2023/06/07 20:31:50;;;;;;;4.90;1.30;;;;;;;17.33;87.31;100865.77;110270;1276;22113;-80
2023/06/07 20:34:18;;;;;;;3.20;1.70;;;;;;;17.35;86.86;100866.05;110169;1266;138395;-81
2023/06/07 20:36:47;;;;;;;1.20;1.20;;;;;;;17.39;87.01;100865.52;110156;1275;141377;-82
2023/06/07 20:39:15;;;;;;;2.90;1.30;;;;;;;17.35;87.73;100855.60;110284;1277;22212;-73
2023/06/07 20:41:42;;;;;;;1.90;1.40;;;;;;;17.41;87.97;100864.42;110001;1277;139984;-79
2023/06/07 20:44:10;;;;;;;2.80;1.90;;;;;;;17.42;87.05;100863.80;110280;1270;140012;-78
2023/06/07 20:46:37;;;;;;;4.70;1.80;;;;;;;17.41;86.59;100860.30;110272;1272;22229;-79
2023/06/07 20:49:07;;;;;;;3.40;1.60;;;;;;;17.44;86.26;100860.15;110175;1255;138629;-79
2023/06/07 20:51:37;;;;;;;2.80;1.80;;;;;;;17.44;86.55;100858.55;110210;1260;22240;-79
2023/06/07 20:54:05;;;;;;;1.70;1.60;;;;;;;17.45;86.78;100858.23;110110;1270;139066;-77
2023/06/07 20:56:32;;;;;;;5.00;2.80;;;;;;;17.46;86.30;100859.20;110132;1277;139136;-82
2023/06/07 20:59:00;;;;;;;3.40;2.30;;;;;;;17.48;86.16;100861.26;110157;1270;22193;-78
2023/06/07 21:01:28;;;;;;;3.00;1.50;;;;;;;17.48;86.14;100857.23;110153;1274;138694;-78
2023/06/07 21:03:56;;;;;;;2.10;1.70;;;;;;;17.51;86.16;100856.16;110265;1277;22191;-79
2023/06/07 21:06:24;;;;;;;1.60;1.50;;;;;;;17.52;85.44;100855.86;110072;1277;137613;-79
2023/06/07 21:08:52;;;;;;;2.20;1.70;;;;;;;17.49;84.95;100858.45;109998;1277;138087;-81
2023/06/07 21:11:19;;;;;;;4.60;1.80;;;;;;;17.42;85.90;100860.55;110091;1270;22363;-78
2023/06/07 21:13:47;;;;;;;3.10;1.80;;;;;;;17.33;87.53;100860.17;110167;1277;138088;-76
2023/06/07 21:16:15;;;;;;;4.10;1.70;;;;;;;17.29;87.12;100854.61;109986;1277;141917;-77
2023/06/07 21:18:42;;;;;;;2.50;1.70;;;;;;;17.26;87.48;100851.98;110289;1277;22184;-78
2023/06/07 21:21:11;;;;;;;1.90;1.50;;;;;;;17.28;88.33;100854.88;110176;1271;139618;-79
2023/06/07 21:23:38;;;;;;;1.80;1.40;;;;;;;17.28;88.45;100852.42;110254;1275;22260;-72
2023/06/07 21:26:08;;;;;;;2.20;1.70;;;;;;;17.28;89.69;100849.45;110284;1275;140222;-74
2023/06/07 21:28:36;;;;;;;4.80;1.40;;;;;;;17.21;89.88;100836.77;110154;1269;140538;-81
2023/06/07 21:31:03;;;;;;;2.20;2.00;;;;;;;17.19;90.58;100834.30;110346;1276;22234;-80
2023/06/07 21:33:31;;;;;;;1.70;1.20;;;;;;;17.05;92.44;100830.81;109956;1259;138719;-82
2023/06/07 21:35:58;;;;;;;3.20;2.60;;;;;;;17.00;93.27;100827.20;110350;1271;22251;-79
2023/06/07 21:38:25;;;;;;;2.30;1.70;;;;;;;16.89;94.41;100821.86;110065;1275;139610;-79
2023/06/07 21:40:53;;;;;;;1.90;1.80;;;;;;;16.85;94.13;100816.29;110063;1272;138606;-77
2023/06/07 21:43:20;;;;;;;5.30;1.70;;;;;;;16.83;95.38;100814.46;110248;1271;22284;-81
2023/06/07 21:45:47;;;;;;;2.30;2.20;;;;;;;16.78;96.62;100807.54;110005;1260;139749;-80
2023/06/07 21:48:15;;;;;;;1.50;1.50;;;;;;;16.74;96.08;100803.37;110098;1275;139981;-79
2023/06/07 21:50:42;;;;;;;2.10;2.00;;;;;;;16.76;95.21;100799.79;110249;1271;22318;-80
2023/06/07 21:53:10;;;;;;;1.50;1.20;;;;;;;16.86;94.20;100794.90;110245;1276;139334;-78
2023/06/07 21:55:37;;;;;;;1.40;1.30;;;;;;;16.95;94.04;100795.80;110252;1275;22222;-81
2023/06/07 21:58:04;;;;;;;1.80;1.70;;;;;;;16.89;93.75;100792.98;110025;1276;139221;-80
2023/06/07 22:00:32;;;;;;;1.50;1.40;;;;;;;16.85;92.95;100786.27;110152;1269;139706;-81
2023/06/07 22:02:59;;;;;;;4.10;2.70;;;;;;;16.83;93.45;100781.80;110287;1256;23012;-81
2023/06/07 22:05:26;;;;;;;1.80;1.60;;;;;;;16.78;93.79;100773.37;110077;1265;139591;-79
2023/06/07 22:07:54;;;;;;;1.70;1.60;;;;;;;16.70;93.90;100768.46;110241;1270;22206;-79
2023/06/07 22:10:21;;;;;;;2.60;2.10;;;;;;;16.67;94.19;100770.10;110168;1277;138283;-75
2023/06/07 22:12:53;;;;;;;2.20;2.10;;;;;;;16.62;94.55;100771.36;110165;1266;139269;-83
2023/06/07 22:15:24;;;;;;;2.20;1.40;;;;;;;16.65;94.36;100771.46;110228;1259;22373;-83
2023/06/07 22:17:53;;;;;;;1.90;1.80;;;;;;;16.67;94.69;100770.04;110168;1255;139264;-80
2023/06/07 22:20:23;;;;;;;2.50;1.90;;;;;;;16.70;94.74;100768.30;110119;1271;140697;-70
2023/06/07 22:22:51;;;;;;;1.40;1.30;;;;;;;16.70;95.04;100764.93;110407;1276;22195;-80
2023/06/07 22:25:19;;;;;;;3.20;1.80;;;;;;;16.71;94.83;100766.67;110128;1277;139910;-82
2023/06/07 22:28:09;;;;;;;1.70;1.60;;;;;;;16.75;93.07;100762.45;110151;1275;139584;-80
2023/06/07 22:30:38;;;;;;;1.60;1.50;;;;;;;16.83;91.67;100760.06;110372;1269;22219;-80
2023/06/07 22:33:10;;;;;;;3.40;1.50;;;;;;;16.87;91.38;100758.08;110143;1258;139045;-79
2023/06/07 22:35:39;;;;;;;2.10;1.40;;;;;;;16.99;89.99;100759.70;110136;1278;22208;-82
2023/06/07 22:38:11;;;;;;;1.50;1.40;;;;;;;17.07;89.68;100759.04;110302;1254;139289;-80
2023/06/07 22:40:41;;;;;;;3.60;2.50;;;;;;;17.15;88.59;100756.77;110178;1277;139832;-78
2023/06/07 22:43:08;;;;;;;3.20;2.40;;;;;;;17.21;87.77;100751.02;110247;1277;22473;-81
2023/06/07 22:45:36;;;;;;;1.90;1.40;;;;;;;17.26;88.38;100751.51;110137;1271;138240;-81
2023/06/07 22:48:11;;;;;;;2.60;1.80;;;;;;;17.30;87.23;100745.80;110280;1268;138784;-78
2023/06/07 22:50:39;;;;;;;1.50;1.40;;;;;;;17.34;86.74;100743.36;110217;1271;22302;-79
2023/06/07 22:53:11;;;;;;;3.90;1.70;;;;;;;17.37;85.87;100742.39;110131;1260;137927;-78
2023/06/07 22:55:40;;;;;;;1.00;1.00;;;;;;;17.41;85.68;100736.31;110267;1271;22434;-78
2023/06/07 22:58:08;;;;;;;1.30;1.30;;;;;;;17.41;85.61;100731.95;110114;1275;139722;-78
2023/06/07 23:00:36;;;;;;;1.90;1.80;;;;;;;17.40;86.40;100735.58;110146;1270;139326;-78
2023/06/07 23:03:07;;;;;;;3.40;1.10;;;;;;;17.35;85.91;100736.88;110278;1272;22240;-79
2023/06/07 23:05:36;;;;;;;3.10;1.60;;;;;;;17.37;84.43;100734.58;110097;1270;139070;-79
2023/06/07 23:08:04;;;;;;;2.20;1.40;;;;;;;17.40;83.64;100737.45;110143;1276;139196;-79
2023/06/07 23:10:32;;;;;;;1.30;1.20;;;;;;;17.40;83.38;100744.38;110419;1269;22905;-78
2023/06/07 23:13:07;;;;;;;3.80;1.90;;;;;;;17.43;83.76;100750.80;110103;1277;138465;-76
2023/06/07 23:15:40;;;;;;;3.50;1.20;;;;;;;17.48;84.75;100753.81;110218;1276;23122;-78
2023/06/07 23:18:10;;;;;;;1.20;1.20;;;;;;;17.52;85.88;100755.48;110139;1270;138287;-76
2023/06/07 23:20:40;;;;;;;1.40;1.40;;;;;;;17.50;86.14;100751.52;110138;1272;138698;-79
2023/06/07 23:23:09;;;;;;;3.30;1.20;;;;;;;17.46;85.77;100751.71;110262;1270;22117;-78
2023/06/07 23:25:38;;;;;;;2.80;1.50;;;;;;;17.42;85.17;100751.31;110141;1269;138775;-78
2023/06/07 23:28:06;;;;;;;1.70;1.60;;;;;;;17.36;85.68;100754.16;110125;1276;138045;-76
2023/06/07 23:30:33;;;;;;;1.60;1.50;;;;;;;17.30;86.36;100757.12;110423;1253;22215;-77
2023/06/07 23:33:01;;;;;;;3.30;1.50;;;;;;;17.25;87.53;100756.16;110138;1277;139014;-77
2023/06/07 23:35:29;;;;;;;1.10;1.00;;;;;;;17.23;89.00;100753.83;110410;1274;22862;-76
2023/06/07 23:37:56;;;;;;;6.60;4.70;;;;;;;17.30;90.39;100766.70;110131;1272;140312;-79
2023/06/07 23:40:24;;;;;;;2.10;1.80;;;;;;;17.34;91.69;100769.02;110132;1270;138539;-78
2023/06/07 23:42:56;;;;;;;2.40;1.90;;;;;;;17.32;93.38;100771.93;110342;1272;22168;-80
2023/06/07 23:45:24;;;;;;;1.90;1.50;;;;;;;17.26;94.30;100770.62;110131;1258;138245;-78
2023/06/07 23:47:51;;;;;;;4.20;1.60;;;;;;;17.20;96.09;100774.37;110200;1271;22328;-72
2023/06/07 23:50:19;;;;;;;2.60;1.30;;;;;;;17.12;97.12;100769.96;110087;1271;138157;-79
2023/06/07 23:52:46;;;;;;;6.00;2.40;;;;;;;16.99;98.52;100766.60;110099;1277;138453;-79
2023/06/07 23:55:13;;;;;;;1.30;1.30;;;;;;;16.86;99.08;100770.42;110172;1277;22278;-78
2023/06/07 23:57:41;;;;;;;1.60;1.40;;;;;;;16.78;99.81;100772.65;110101;1273;139602;-78
